Тахтоямск

СКИДКИ НА СМАРТФОНЫ!

Карта отелей и гостиниц, располагающихся рядом с аэропортом Тахтоямск :

Тахтоямск Магаданская область 60° 11' 39.0588" N, 154° 40' 27.9012" E
Код аэродрома ИКАО
UHGT
Код аэродрома RU
УХГТ
Координаты
N60.19418° E154.67442°
Превышение над уровнем моря
12
Основная полоса
15/33
Курс магнитный
146/326
Длина основной ВПП
650
Ширина основной ВПП
35
Покрытие основной ВПП
Нетвёрдое (грунт)
Освещение ВПП
Нет
Тип: 
Аэродром
Класс аэродрома: 
Принадлежность: 
ГА
Статус: 
Действующий
Сайт: 
E-mail аэродрома: 
Страна: 
Россия
Регион: 
Магаданская область
Город: 
Дополнительная информация: 

Скидки на навигаторы!

Найти трансфер

С помощью этой формы Вы можете найти трансфер из аэропорта Тахтоямск в город, аэропорт или вокзал:

Погода в аэропортах:

Авиационная погода в Емельяново

Регион: 
Погода METAR: 
UNKL 190100Z 25003MPS 9999 -SHRA SCT040CB 10/09 Q1010 R29/110060 NOSIG RMK QFE732
Время наблюдения
2022-08-19T01:00:00Z
Температура C
10.0
Точка росы
9.0
Направление ветра
250
Скорость ветра (узлы)
6
Метео видимость
6.21
Облачность
SCT
Нижняя граница облачности (футы)
4000
Явления погоды
-SHRA
Условия полета
VFR
Аэропорт подробнее: 
SCT – разбросанная отдельная облачность;
-SHRA - слабый ливневой дождь;

Авиационная погода в Кневичи

Регион: 
Погода METAR: 
UHWW 190100Z 14005MPS 9999 -SHRA SCT017 BKN040CB 23/20 Q1000 R25L/0///70 NOSIG RMK QFE749
Время наблюдения
2022-08-19T01:00:00Z
Температура C
23.0
Точка росы
20.0
Направление ветра
140
Скорость ветра (узлы)
10
Метео видимость
6.21
Облачность
SCT
BKN
Нижняя граница облачности (футы)
1700
4000
Явления погоды
-SHRA
Условия полета
VFR
Аэропорт подробнее: 
SCT – разбросанная отдельная облачность; BKN – значительная (рассеянная, разорванная) облачность;
-SHRA - слабый ливневой дождь;

Авиационная погода в Усть-Каменогорске

Регион: 
Погода METAR: 
UASK 190255Z 25002MPS 220V330 2100 BR BCFG SCT004 10/07 Q1015 TEMPO 0200 FG BKN002 RMK QBB120 QFE736/0981
Время наблюдения
2022-08-19T02:55:00Z
Температура C
10.0
Точка росы
7.0
Направление ветра
250
Скорость ветра (узлы)
4
Метео видимость
1.3
Облачность
SCT
Нижняя граница облачности (футы)
400
Явления погоды
BR BCFG
Условия полета
IFR
Аэропорт подробнее: 
SCT – разбросанная отдельная облачность;
FG – туман (небо не видно, температура воздуха выше нуля или ноль); BR – дымка (видимость от 1 до 9 км);

Авиационная погода в Богашево

Регион: 
Погода METAR: 
UNTT 190100Z 25003MPS 2300 -RA BR OVC002 10/10 Q1011 R21/290050 NOSIG RMK QFE743
Время наблюдения
2022-08-19T01:00:00Z
Температура C
10.0
Точка росы
10.0
Направление ветра
250
Скорость ветра (узлы)
6
Метео видимость
1.43
Облачность
OVC
Нижняя граница облачности (футы)
200
Явления погоды
-RA BR
Условия полета
LIFR
Аэропорт подробнее: 
OVC – сплошная облачность;
-RA - слабый дождь; BR – дымка (видимость от 1 до 9 км);